createdAt,value
2023-01-31T00:01:24.389Z,3.20
2023-01-31T00:04:12.327Z,2.31
2023-01-31T00:06:41.545Z,2.50
2023-01-31T00:09:11.947Z,2.90
2023-01-31T00:11:38.576Z,2.78
2023-01-31T00:14:07.408Z,2.76
2023-01-31T00:16:34.877Z,2.09
2023-01-31T00:19:02.390Z,2.67
2023-01-31T00:21:30.389Z,2.07
2023-01-31T00:23:58.616Z,2.12
2023-01-31T00:26:29.673Z,2.15
2023-01-31T00:28:58.064Z,2.65
2023-01-31T00:31:27.617Z,2.19
2023-01-31T00:33:55.414Z,1.87
2023-01-31T00:36:33.576Z,1.79
2023-01-31T00:39:02.391Z,2.42
2023-01-31T00:41:31.007Z,2.09
2023-01-31T00:43:57.993Z,1.72
2023-01-31T00:46:24.968Z,2.07
2023-01-31T00:48:52.638Z,2.04
2023-01-31T00:51:20.554Z,2.10
2023-01-31T00:53:48.006Z,1.37
2023-01-31T00:56:17.715Z,2.02
2023-01-31T00:58:44.549Z,2.09
2023-01-31T01:01:16.566Z,1.45
2023-01-31T01:03:45.683Z,1.88
2023-01-31T01:06:13.872Z,1.89
2023-01-31T01:08:42.710Z,1.30
2023-01-31T01:11:18.191Z,1.04
2023-01-31T01:13:46.474Z,1.68
2023-01-31T01:16:16.890Z,1.05
2023-01-31T01:18:46.540Z,1.38
2023-01-31T01:21:17.195Z,1.48
2023-01-31T01:23:43.860Z,1.54
2023-01-31T01:26:29.464Z,1.55
2023-01-31T01:28:57.690Z,1.50
2023-01-31T01:31:30.418Z,1.27
2023-01-31T01:34:03.147Z,1.30
2023-01-31T01:36:35.956Z,0.79
2023-01-31T01:39:11.491Z,1.13
2023-01-31T01:41:39.252Z,1.37
2023-01-31T01:44:42.085Z,1.37
2023-01-31T01:47:42.616Z,0.85
2023-01-31T01:50:12.339Z,1.41
2023-01-31T01:52:47.433Z,0.79
2023-01-31T01:55:20.095Z,1.06
2023-01-31T01:57:50.348Z,1.33
2023-01-31T02:00:23.193Z,1.00
2023-01-31T02:02:57.042Z,1.20
2023-01-31T02:05:29.725Z,1.94
2023-01-31T02:07:56.769Z,2.09
2023-01-31T02:10:30.187Z,1.97
2023-01-31T02:12:56.948Z,1.56
2023-01-31T02:15:24.742Z,1.93
2023-01-31T02:17:53.464Z,2.21
2023-01-31T02:20:58.386Z,2.28
2023-01-31T02:23:51.244Z,2.37
2023-01-31T02:26:33.138Z,2.48
2023-01-31T02:29:34.442Z,2.67
2023-01-31T02:32:22.779Z,2.85
2023-01-31T02:34:59.046Z,2.94
2023-01-31T02:37:37.816Z,2.39
2023-01-31T02:41:01.579Z,3.08
2023-01-31T02:44:10.837Z,2.51
2023-01-31T02:46:47.507Z,3.13
2023-01-31T02:49:35.985Z,2.51
2023-01-31T02:52:20.511Z,3.43
2023-01-31T02:55:32.667Z,2.82
2023-01-31T02:58:01.931Z,3.35
2023-01-31T03:00:31.996Z,2.94
2023-01-31T03:02:58.519Z,3.32
2023-01-31T03:05:26.009Z,3.25
2023-01-31T03:07:56.899Z,3.44
2023-01-31T03:11:04.173Z,3.61
2023-01-31T03:13:47.529Z,3.67
2023-01-31T03:16:39.491Z,3.74
2023-01-31T03:19:13.725Z,3.82
2023-01-31T03:21:47.937Z,3.34
2023-01-31T03:24:18.303Z,3.72
2023-01-31T03:26:46.463Z,3.37
2023-01-31T03:29:16.294Z,4.00
2023-01-31T03:31:50.722Z,3.53
2023-01-31T03:34:18.132Z,3.88
2023-01-31T03:37:12.706Z,4.20
2023-01-31T03:39:54.986Z,4.24
2023-01-31T03:42:43.590Z,4.33
2023-01-31T03:45:23.280Z,4.28
2023-01-31T03:47:53.081Z,3.75
2023-01-31T03:50:23.156Z,4.36
2023-01-31T03:52:56.686Z,4.36
2023-01-31T03:56:15.537Z,4.46
2023-01-31T03:58:47.938Z,3.99
2023-01-31T04:01:17.057Z,4.39
2023-01-31T04:03:58.381Z,4.67
2023-01-31T04:06:26.925Z,4.09
2023-01-31T04:08:54.502Z,4.25
2023-01-31T04:11:24.709Z,4.75
2023-01-31T04:13:51.411Z,4.80
2023-01-31T04:16:18.365Z,4.24
2023-01-31T04:18:45.083Z,4.27
2023-01-31T04:21:14.185Z,4.62
2023-01-31T04:23:40.829Z,4.90
2023-01-31T04:26:07.325Z,4.29
2023-01-31T04:28:33.922Z,4.72
2023-01-31T04:31:00.594Z,4.26
2023-01-31T04:33:27.195Z,4.12
2023-01-31T04:35:53.810Z,4.63
2023-01-31T04:38:20.460Z,4.70
2023-01-31T04:40:47.356Z,4.12
2023-01-31T04:43:14.123Z,4.44
2023-01-31T04:48:31.831Z,4.61
2023-01-31T04:50:58.432Z,4.00
2023-01-31T04:53:25.057Z,4.53
2023-01-31T04:55:55.226Z,4.38
2023-01-31T04:58:23.241Z,4.37
2023-01-31T05:00:50.012Z,4.24
2023-01-31T05:03:16.614Z,4.24
2023-01-31T05:05:43.164Z,4.12
2023-01-31T05:08:09.667Z,4.39
2023-01-31T05:10:36.494Z,3.73
2023-01-31T05:13:03.153Z,3.90
2023-01-31T05:15:29.869Z,4.08
2023-01-31T05:18:02.779Z,4.06
2023-01-31T05:20:31.486Z,3.71
2023-01-31T05:22:58.434Z,3.76
2023-01-31T05:25:26.109Z,4.17
2023-01-31T05:27:53.913Z,4.34
2023-01-31T05:30:20.794Z,4.02
2023-01-31T05:32:49.665Z,4.47
2023-01-31T05:35:16.927Z,4.14
2023-01-31T05:37:44.622Z,4.07
2023-01-31T05:40:13.501Z,4.48
2023-01-31T05:42:40.611Z,4.09
2023-01-31T05:45:09.696Z,4.19
2023-01-31T05:47:36.822Z,4.35
2023-01-31T05:50:04.651Z,4.30
2023-01-31T05:52:31.243Z,3.97
2023-01-31T05:54:57.910Z,3.95
2023-01-31T05:57:24.423Z,4.49
2023-01-31T05:59:50.951Z,4.41
2023-01-31T06:02:17.530Z,4.66
2023-01-31T06:04:44.211Z,4.46
2023-01-31T06:07:10.785Z,4.13
2023-01-31T06:09:38.760Z,4.08
2023-01-31T06:12:05.951Z,4.15
2023-01-31T06:14:33.157Z,4.30
2023-01-31T06:17:00.413Z,4.62
2023-01-31T06:19:27.105Z,4.64
2023-01-31T06:21:53.707Z,4.18
2023-01-31T06:24:20.412Z,4.20
2023-01-31T06:26:47.418Z,4.12
2023-01-31T06:29:14.071Z,4.58
2023-01-31T06:31:45.107Z,4.72
2023-01-31T06:34:12.256Z,4.64
2023-01-31T06:36:38.897Z,4.80
2023-01-31T06:39:05.887Z,4.65
2023-01-31T06:41:32.943Z,4.20
2023-01-31T06:43:59.613Z,4.22
2023-01-31T06:46:26.240Z,4.17
2023-01-31T06:48:52.828Z,4.75
2023-01-31T06:51:19.370Z,4.77
2023-01-31T06:53:45.937Z,3.83
2023-01-31T06:56:12.502Z,4.23
2023-01-31T06:58:39.129Z,4.67
2023-01-31T07:01:13.497Z,4.76
2023-01-31T07:03:40.627Z,4.64
2023-01-31T07:06:08.818Z,4.34
2023-01-31T07:08:36.392Z,4.59
2023-01-31T07:11:04.023Z,4.78
2023-01-31T07:13:31.331Z,4.77
2023-01-31T07:15:58.228Z,4.02
2023-01-31T07:18:24.845Z,4.60
2023-01-31T07:20:51.497Z,4.21
2023-01-31T07:23:18.023Z,4.25
2023-01-31T07:25:44.645Z,4.74
2023-01-31T07:28:12.067Z,4.82
2023-01-31T07:30:40.057Z,4.89
2023-01-31T07:33:06.808Z,4.84
2023-01-31T07:35:33.581Z,4.37
2023-01-31T07:38:00.119Z,4.89
2023-01-31T07:40:26.626Z,4.86
2023-01-31T07:42:58.596Z,4.61
2023-01-31T07:45:25.340Z,5.09
2023-01-31T07:47:52.212Z,5.21
2023-01-31T07:50:20.221Z,5.28
2023-01-31T07:52:49.194Z,4.81
2023-01-31T07:55:15.987Z,5.21
2023-01-31T07:57:42.520Z,5.40
2023-01-31T08:00:29.761Z,4.76
2023-01-31T08:03:14.947Z,5.33
2023-01-31T08:05:41.605Z,5.54
2023-01-31T08:08:10.827Z,5.10
2023-01-31T08:10:37.886Z,5.66
2023-01-31T08:13:06.045Z,5.09
2023-01-31T08:15:33.579Z,5.77
2023-01-31T08:18:00.189Z,5.84
2023-01-31T08:20:26.772Z,5.85
2023-01-31T08:22:53.301Z,6.06
2023-01-31T08:25:20.985Z,5.53
2023-01-31T08:27:47.656Z,5.95
2023-01-31T08:30:14.343Z,6.22
2023-01-31T08:32:41.928Z,6.17
2023-01-31T08:35:08.702Z,6.10
2023-01-31T08:37:35.273Z,5.87
2023-01-31T08:40:02.127Z,6.30
2023-01-31T08:42:29.271Z,6.45
2023-01-31T08:44:55.803Z,5.76
2023-01-31T08:47:22.412Z,6.56
2023-01-31T08:49:48.999Z,6.60
2023-01-31T08:52:15.620Z,6.01
2023-01-31T08:54:42.183Z,6.62
2023-01-31T08:57:08.694Z,6.73
2023-01-31T08:59:35.314Z,6.36
2023-01-31T09:02:02.506Z,6.49
2023-01-31T09:04:29.130Z,7.09
2023-01-31T09:06:55.687Z,6.96
2023-01-31T09:09:22.328Z,7.09
2023-01-31T09:11:48.846Z,6.93
2023-01-31T09:14:15.440Z,7.05
2023-01-31T09:16:43.532Z,7.24
2023-01-31T09:19:10.289Z,7.15
2023-01-31T09:21:36.970Z,7.19
2023-01-31T09:24:04.084Z,6.98
2023-01-31T09:26:32.270Z,6.93
2023-01-31T09:29:01.271Z,7.38
2023-01-31T09:31:28.646Z,7.41
2023-01-31T09:33:55.363Z,7.37
2023-01-31T09:36:23.001Z,7.55
2023-01-31T09:38:54.643Z,6.60
2023-01-31T09:41:29.892Z,7.59
2023-01-31T09:44:04.012Z,7.66
2023-01-31T09:46:37.575Z,7.64
2023-01-31T09:49:07.548Z,6.90
2023-01-31T09:51:35.153Z,7.59
2023-01-31T09:54:05.062Z,7.17
2023-01-31T09:57:29.748Z,7.95
2023-01-31T10:00:39.859Z,7.98
2023-01-31T10:03:36.988Z,8.16
2023-01-31T10:06:13.507Z,8.05
2023-01-31T10:08:55.747Z,7.64
2023-01-31T10:11:34.473Z,8.27
2023-01-31T10:14:31.768Z,8.18
2023-01-31T10:17:20.463Z,8.03
2023-01-31T10:20:02.726Z,7.36
2023-01-31T10:22:39.084Z,7.74
2023-01-31T10:25:34.177Z,7.86
2023-01-31T10:28:15.296Z,7.46
2023-01-31T10:30:48.946Z,7.40
2023-01-31T10:33:30.442Z,7.59
2023-01-31T10:36:02.136Z,7.67
2023-01-31T10:38:41.960Z,7.22
2023-01-31T10:41:34.111Z,7.37
2023-01-31T10:44:06.363Z,7.89
2023-01-31T10:46:33.045Z,7.63
2023-01-31T10:48:59.790Z,7.64
2023-01-31T10:51:41.469Z,7.69
2023-01-31T10:54:34.320Z,7.64
2023-01-31T10:57:01.464Z,7.70
2023-01-31T10:59:41.945Z,7.35
2023-01-31T11:02:20.090Z,7.76
2023-01-31T11:04:46.831Z,8.08
2023-01-31T11:07:13.419Z,7.63
2023-01-31T11:09:45.517Z,7.92
2023-01-31T11:12:12.076Z,8.26
2023-01-31T11:14:39.248Z,8.33
2023-01-31T11:17:18.593Z,7.96
2023-01-31T11:19:54.066Z,8.21
2023-01-31T11:22:29.321Z,8.24
2023-01-31T11:24:58.310Z,8.09
2023-01-31T11:27:29.109Z,8.52
2023-01-31T11:30:00.177Z,8.08
2023-01-31T11:32:35.020Z,7.99
2023-01-31T11:35:14.598Z,7.76
2023-01-31T11:38:02.427Z,7.83
2023-01-31T11:40:35.101Z,7.78
2023-01-31T11:43:02.813Z,8.21
2023-01-31T11:45:33.514Z,8.09
2023-01-31T11:48:15.305Z,7.59
2023-01-31T11:50:50.879Z,7.66
2023-01-31T11:53:43.318Z,8.06
2023-01-31T11:56:23.128Z,7.55
2023-01-31T11:58:55.196Z,8.16
2023-01-31T12:01:24.500Z,7.88
2023-01-31T12:04:04.132Z,8.07
2023-01-31T12:06:41.182Z,7.97
2023-01-31T12:09:23.282Z,7.79
2023-01-31T12:11:58.275Z,7.37
2023-01-31T12:14:37.355Z,7.74
2023-01-31T12:17:04.209Z,7.67
2023-01-31T12:19:58.747Z,7.60
2023-01-31T12:22:36.668Z,7.68
2023-01-31T12:25:23.197Z,7.44
2023-01-31T12:28:04.552Z,7.02
2023-01-31T12:30:51.553Z,7.23
2023-01-31T12:33:42.994Z,7.34
2023-01-31T12:36:18.104Z,7.09
2023-01-31T12:39:04.283Z,7.04
2023-01-31T12:41:41.371Z,7.24
2023-01-31T12:44:34.909Z,7.30
2023-01-31T12:47:11.852Z,7.33
2023-01-31T12:50:11.660Z,6.86
2023-01-31T12:53:12.357Z,7.37
2023-01-31T12:56:11.299Z,7.36
2023-01-31T12:59:15.314Z,7.10
2023-01-31T13:02:12.033Z,7.43
2023-01-31T13:04:48.830Z,7.47
2023-01-31T13:07:35.725Z,7.59
2023-01-31T13:10:06.984Z,7.67
2023-01-31T13:12:36.037Z,7.24
2023-01-31T13:15:17.224Z,7.57
2023-01-31T13:17:46.623Z,7.38
2023-01-31T13:20:23.911Z,7.78
2023-01-31T13:22:55.461Z,7.31
2023-01-31T13:25:44.676Z,7.68
2023-01-31T13:28:21.225Z,7.91
2023-01-31T13:30:52.900Z,7.85
2023-01-31T13:33:44.837Z,8.01
2023-01-31T13:36:32.274Z,7.50
2023-01-31T13:39:06.276Z,7.98
2023-01-31T13:41:34.503Z,7.49
2023-01-31T13:44:02.479Z,7.88
2023-01-31T13:46:32.567Z,7.54
2023-01-31T13:49:07.270Z,8.15
2023-01-31T13:51:43.236Z,8.13
2023-01-31T13:54:33.131Z,8.34
2023-01-31T13:57:00.938Z,8.51
2023-01-31T13:59:34.092Z,8.42
2023-01-31T14:02:04.458Z,8.31
2023-01-31T14:04:39.807Z,8.40
2023-01-31T14:07:06.906Z,8.94
2023-01-31T14:09:36.429Z,8.47
2023-01-31T14:12:18.007Z,9.01
2023-01-31T14:14:46.839Z,8.53
2023-01-31T14:17:34.668Z,9.23
2023-01-31T14:20:26.347Z,8.82
2023-01-31T14:23:24.949Z,9.24
2023-01-31T14:25:51.706Z,9.08
2023-01-31T14:28:18.564Z,9.09
2023-01-31T14:30:47.745Z,8.77
2023-01-31T14:33:19.629Z,8.78
2023-01-31T14:36:37.557Z,8.99
2023-01-31T14:39:25.188Z,8.92
2023-01-31T14:42:04.188Z,8.92
2023-01-31T14:44:36.831Z,8.93
2023-01-31T14:47:25.851Z,8.98
2023-01-31T14:50:04.320Z,8.84
2023-01-31T14:53:06.723Z,9.00
2023-01-31T14:55:48.045Z,8.64
2023-01-31T14:58:22.965Z,8.67
2023-01-31T15:00:59.079Z,8.88
2023-01-31T15:03:34.960Z,9.20
2023-01-31T15:06:37.521Z,9.38
2023-01-31T15:09:49.802Z,9.26
2023-01-31T15:12:53.443Z,9.08
2023-01-31T15:15:31.871Z,8.91
2023-01-31T15:18:02.222Z,9.28
2023-01-31T15:20:41.120Z,9.01
2023-01-31T15:23:16.510Z,9.32
2023-01-31T15:25:45.719Z,9.17
2023-01-31T15:28:18.750Z,8.67
2023-01-31T15:30:46.204Z,8.85
2023-01-31T15:33:32.635Z,8.81
2023-01-31T15:36:05.189Z,9.33
2023-01-31T15:38:37.761Z,9.25
2023-01-31T15:41:16.265Z,9.44
2023-01-31T15:43:42.989Z,8.89
2023-01-31T15:46:30.675Z,9.35
2023-01-31T15:48:59.000Z,9.28
2023-01-31T15:51:27.076Z,8.82
2023-01-31T15:54:02.862Z,9.19
2023-01-31T15:56:30.251Z,9.20
2023-01-31T15:58:58.109Z,9.19
2023-01-31T16:01:25.989Z,8.91
2023-01-31T16:03:56.399Z,9.05
2023-01-31T16:06:26.700Z,9.05
2023-01-31T16:09:00.758Z,8.88
2023-01-31T16:11:33.264Z,8.85
2023-01-31T16:14:01.772Z,8.98
2023-01-31T16:16:29.753Z,8.48
2023-01-31T16:19:00.200Z,8.95
2023-01-31T16:21:31.841Z,9.02
2023-01-31T16:24:14.833Z,8.74
2023-01-31T16:27:14.680Z,9.04
2023-01-31T16:29:45.978Z,9.01
2023-01-31T16:32:19.603Z,8.94
2023-01-31T16:35:12.272Z,8.40
2023-01-31T16:37:41.567Z,8.34
2023-01-31T16:40:17.359Z,8.96
2023-01-31T16:42:44.417Z,8.96
2023-01-31T16:45:30.761Z,8.98
2023-01-31T16:48:31.695Z,8.39
2023-01-31T16:51:00.697Z,8.46
2023-01-31T16:53:40.048Z,8.36
2023-01-31T16:56:19.454Z,8.86
2023-01-31T16:58:59.274Z,8.61
2023-01-31T17:01:35.099Z,7.86
2023-01-31T17:04:09.201Z,8.31
2023-01-31T17:06:36.212Z,8.40
2023-01-31T17:09:05.985Z,8.28
2023-01-31T17:11:42.536Z,8.03
2023-01-31T17:14:09.831Z,8.09
2023-01-31T17:16:36.475Z,7.58
2023-01-31T17:19:03.010Z,7.54
2023-01-31T17:21:34.698Z,7.36
2023-01-31T17:24:01.575Z,7.88
2023-01-31T17:26:28.279Z,7.66
2023-01-31T17:29:01.965Z,7.11
2023-01-31T17:31:29.616Z,7.25
2023-01-31T17:33:56.794Z,7.42
2023-01-31T17:36:23.719Z,7.31
2023-01-31T17:38:51.883Z,6.78
2023-01-31T17:41:20.514Z,7.26
2023-01-31T17:43:47.216Z,7.08
2023-01-31T17:46:16.208Z,7.19
2023-01-31T17:48:43.223Z,7.04
2023-01-31T17:51:10.655Z,6.74
2023-01-31T17:53:47.856Z,6.70
2023-01-31T17:56:16.337Z,6.46
2023-01-31T17:58:43.069Z,6.55
2023-01-31T18:01:10.921Z,6.82
2023-01-31T18:03:37.559Z,6.93
2023-01-31T18:06:06.430Z,6.60
2023-01-31T18:08:33.855Z,6.70
2023-01-31T18:11:13.828Z,6.72
2023-01-31T18:13:41.056Z,6.81
2023-01-31T18:16:21.444Z,6.72
2023-01-31T18:18:48.436Z,6.31
2023-01-31T18:21:17.634Z,6.42
2023-01-31T18:23:48.466Z,6.96
2023-01-31T18:26:16.333Z,6.89
2023-01-31T18:28:43.322Z,6.72
2023-01-31T18:31:13.630Z,6.63
2023-01-31T18:33:42.176Z,6.76
2023-01-31T18:36:13.346Z,6.58
2023-01-31T18:38:42.746Z,6.37
2023-01-31T18:41:14.270Z,6.36
2023-01-31T18:43:42.290Z,6.38
2023-01-31T18:46:10.168Z,6.53
2023-01-31T18:48:38.863Z,6.63
2023-01-31T18:51:08.465Z,6.32
2023-01-31T18:53:54.426Z,6.55
2023-01-31T18:56:23.598Z,6.22
2023-01-31T18:58:52.354Z,6.31
2023-01-31T19:01:24.263Z,6.66
2023-01-31T19:03:52.960Z,6.71
2023-01-31T19:06:26.749Z,5.88
2023-01-31T19:08:55.051Z,6.26
2023-01-31T19:11:24.969Z,6.78
2023-01-31T19:13:52.265Z,6.22
2023-01-31T19:16:22.111Z,6.34
2023-01-31T19:18:49.495Z,6.66
2023-01-31T19:21:28.155Z,6.28
2023-01-31T19:23:57.305Z,6.74
2023-01-31T19:26:25.023Z,6.13
2023-01-31T19:28:51.937Z,6.21
2023-01-31T19:31:21.412Z,6.43
2023-01-31T19:33:53.951Z,6.62
2023-01-31T19:36:23.857Z,6.51
2023-01-31T19:38:50.634Z,5.91
2023-01-31T19:41:20.847Z,6.20
2023-01-31T19:43:56.473Z,5.68
2023-01-31T19:46:24.616Z,6.14
2023-01-31T19:48:51.374Z,5.48
2023-01-31T19:51:19.992Z,6.07
2023-01-31T19:53:47.473Z,5.40
2023-01-31T19:56:14.358Z,5.98
2023-01-31T19:58:41.269Z,6.01
2023-01-31T20:01:12.822Z,6.00
2023-01-31T20:03:39.821Z,6.00
2023-01-31T20:06:15.428Z,5.58
2023-01-31T20:08:42.879Z,5.07
2023-01-31T20:11:10.248Z,5.73
2023-01-31T20:13:37.430Z,5.52
2023-01-31T20:16:07.063Z,5.97
2023-01-31T20:18:35.196Z,5.88
2023-01-31T20:21:01.895Z,5.85
2023-01-31T20:23:29.168Z,5.61
2023-01-31T20:25:56.999Z,5.83
2023-01-31T20:28:25.196Z,5.71
2023-01-31T20:30:52.230Z,5.79
2023-01-31T20:33:19.128Z,5.65
2023-01-31T20:35:46.414Z,5.79
2023-01-31T20:38:15.393Z,5.41
2023-01-31T20:40:41.923Z,5.21
2023-01-31T20:43:08.613Z,5.31
2023-01-31T20:45:35.313Z,5.54
2023-01-31T20:48:02.049Z,5.67
2023-01-31T20:50:28.552Z,5.38
2023-01-31T20:52:56.251Z,5.45
2023-01-31T20:55:23.670Z,5.23
2023-01-31T20:57:51.082Z,5.51
2023-01-31T21:00:19.672Z,5.53
2023-01-31T21:02:47.345Z,5.57
2023-01-31T21:05:14.053Z,4.98
2023-01-31T21:07:40.760Z,5.15
2023-01-31T21:10:08.793Z,5.31
2023-01-31T21:12:35.425Z,4.73
2023-01-31T21:15:02.857Z,5.06
2023-01-31T21:17:39.544Z,4.70
2023-01-31T21:20:07.648Z,4.95
2023-01-31T21:22:34.377Z,4.61
2023-01-31T21:25:01.011Z,4.62
2023-01-31T21:27:27.701Z,4.66
2023-01-31T21:29:54.320Z,4.64
2023-01-31T21:32:20.870Z,4.89
2023-01-31T21:34:47.453Z,4.58
2023-01-31T21:37:14.045Z,4.77
2023-01-31T21:39:40.520Z,5.01
2023-01-31T21:42:16.218Z,5.17
2023-01-31T21:44:44.121Z,5.06
2023-01-31T21:47:11.238Z,5.15
2023-01-31T21:49:37.867Z,4.66
2023-01-31T21:52:05.798Z,4.69
2023-01-31T21:54:33.417Z,5.17
2023-01-31T21:57:00.367Z,4.92
2023-01-31T21:59:27.014Z,4.72
2023-01-31T22:01:53.706Z,4.64
2023-01-31T22:04:23.511Z,4.54
2023-01-31T22:06:51.091Z,4.60
2023-01-31T22:09:18.448Z,5.02
2023-01-31T22:11:47.420Z,4.54
2023-01-31T22:14:16.007Z,4.52
2023-01-31T22:16:43.441Z,4.56
2023-01-31T22:19:14.118Z,4.93
2023-01-31T22:21:41.885Z,5.00
2023-01-31T22:24:11.389Z,4.41
2023-01-31T22:26:41.418Z,4.71
2023-01-31T22:29:11.489Z,5.01
2023-01-31T22:31:38.587Z,5.13
2023-01-31T22:34:06.500Z,4.88
2023-01-31T22:36:33.833Z,4.81
2023-01-31T22:39:01.105Z,4.88
2023-01-31T22:41:27.787Z,5.15
2023-01-31T22:43:54.963Z,4.58
2023-01-31T22:46:27.424Z,5.30
2023-01-31T22:48:55.210Z,5.11
2023-01-31T22:51:24.726Z,4.69
2023-01-31T22:53:51.917Z,5.08
2023-01-31T22:56:21.892Z,4.79
2023-01-31T22:58:49.460Z,4.63
2023-01-31T23:01:19.219Z,4.97
2023-01-31T23:03:46.448Z,4.80
2023-01-31T23:06:14.837Z,4.46
2023-01-31T23:08:42.426Z,4.52
2023-01-31T23:11:11.765Z,4.58
2023-01-31T23:13:39.055Z,4.48
2023-01-31T23:16:06.725Z,4.58
2023-01-31T23:18:34.100Z,4.48
2023-01-31T23:21:16.023Z,4.56
2023-01-31T23:23:43.656Z,4.52
2023-01-31T23:26:11.771Z,4.33
2023-01-31T23:28:38.317Z,4.70
2023-01-31T23:31:05.362Z,4.52
2023-01-31T23:33:32.008Z,4.52
2023-01-31T23:35:58.571Z,4.11
2023-01-31T23:38:25.954Z,4.24
2023-01-31T23:40:54.055Z,4.23
2023-01-31T23:43:21.517Z,4.57
2023-01-31T23:45:48.295Z,4.56
2023-01-31T23:48:14.966Z,4.77
2023-01-31T23:50:41.678Z,4.65
2023-01-31T23:53:08.471Z,4.33
2023-01-31T23:55:35.063Z,4.21
2023-01-31T23:58:01.665Z,4.77
